IT-0132 weather

CdV "38 N Fly Zone"
Condofuri Marina, Calabria, Italy

Public forecast

Using degrees Celsius for public forecast. Weather courtesy of forecast.io.

Closest aviation weather report (METAR) to CdV "38 N Fly Zone"

Closest report is Reggio Calabria Airport, 13.3 nm (24.6 km) NW. Retrieved 2019/12/13 22:50 UTC (1 hour ago):

LICR 132250Z 31018G33KT 9999 RA SCT030 13/10 Q0996

Closest aviation forecast (TAF) to CdV "38 N Fly Zone"

Closest forecast is Reggio Calabria Airport, 13.3 nm (24.6 km) NW. Retrieved 2019/12/13 18:21 UTC (6 hours ago):

TAF LICR 132316Z 1318/1418 CNL